createdAt,value
2023-04-03T00:01:34.159Z,15.40
2023-04-03T00:04:03.520Z,21.58
2023-04-03T00:06:32.632Z,16.95
2023-04-03T00:09:02.102Z,15.13
2023-04-03T00:14:11.125Z,14.68
2023-04-03T00:16:40.485Z,19.65
2023-04-03T00:19:12.342Z,16.95
2023-04-03T00:21:41.944Z,17.17
2023-04-03T00:24:11.566Z,21.92
2023-04-03T00:26:42.461Z,18.23
2023-04-03T00:29:13.768Z,19.47
2023-04-03T00:31:43.481Z,19.95
2023-04-03T00:34:12.690Z,17.67
2023-04-03T00:36:42.208Z,17.50
2023-04-03T00:39:11.815Z,17.30
2023-04-03T00:41:41.072Z,19.27
2023-04-03T00:45:01.455Z,17.15
2023-04-03T00:50:09.943Z,15.30
2023-04-03T00:52:40.817Z,15.93
2023-04-03T00:55:12.637Z,15.90
2023-04-03T00:57:41.901Z,16.00
2023-04-03T01:00:17.776Z,14.38
2023-04-03T01:02:47.705Z,15.15
2023-04-03T01:05:20.113Z,14.97
2023-04-03T01:07:50.531Z,13.00
2023-04-03T01:10:22.232Z,16.73
2023-04-03T01:12:53.254Z,17.65
2023-04-03T01:15:27.207Z,16.87
2023-04-03T01:18:10.338Z,15.27
2023-04-03T01:21:22.508Z,14.95
2023-04-03T01:24:05.331Z,16.58
2023-04-03T01:26:36.385Z,15.05
2023-04-03T01:29:05.941Z,13.63
2023-04-03T01:31:56.816Z,16.02
2023-04-03T01:34:34.424Z,14.05
2023-04-03T01:37:04.269Z,18.27
2023-04-03T01:39:33.550Z,19.13
2023-04-03T01:42:04.325Z,14.57
2023-04-03T01:44:38.309Z,17.48
2023-04-03T01:47:09.013Z,19.00
2023-04-03T01:52:16.416Z,15.38
2023-04-03T01:54:45.490Z,17.65
2023-04-03T01:57:16.158Z,15.43
2023-04-03T02:02:26.896Z,15.70
2023-04-03T02:04:57.988Z,13.32
2023-04-03T02:07:27.324Z,16.95
2023-04-03T02:09:56.641Z,14.18
2023-04-03T02:12:36.902Z,13.85
2023-04-03T02:15:07.450Z,14.68
2023-04-03T02:17:40.342Z,16.30
2023-04-03T02:20:12.532Z,15.85
2023-04-03T02:22:41.842Z,21.42
2023-04-03T02:25:12.473Z,18.65
2023-04-03T02:27:41.970Z,16.05
2023-04-03T02:30:13.481Z,14.68
2023-04-03T02:32:43.112Z,15.55
2023-04-03T02:35:15.245Z,15.32
2023-04-03T02:37:44.663Z,21.08
2023-04-03T02:40:14.339Z,20.63
2023-04-03T02:42:44.207Z,17.52
2023-04-03T02:45:13.670Z,15.15
2023-04-03T02:47:43.452Z,23.80
2023-04-03T02:50:15.385Z,17.63
2023-04-03T02:52:50.018Z,18.55
2023-04-03T02:55:19.537Z,14.90
2023-04-03T02:57:51.523Z,18.30
2023-04-03T03:00:22.337Z,17.33
2023-04-03T03:02:52.513Z,18.35
2023-04-03T03:05:24.049Z,18.58
2023-04-03T03:08:04.900Z,19.50
2023-04-03T03:10:35.040Z,16.67
2023-04-03T03:13:04.397Z,19.05
2023-04-03T03:15:33.704Z,21.40
2023-04-03T03:18:13.333Z,22.98
2023-04-03T03:20:44.421Z,31.38
2023-04-03T03:23:14.200Z,23.92
2023-04-03T03:25:43.770Z,24.38
2023-04-03T03:28:18.432Z,22.52
2023-04-03T03:30:47.669Z,25.83
2023-04-03T03:33:17.832Z,20.40
2023-04-03T03:35:49.422Z,22.27
2023-04-03T03:38:18.785Z,25.23
2023-04-03T03:40:49.661Z,21.73
2023-04-03T03:43:21.177Z,22.35
2023-04-03T03:45:54.395Z,31.33
2023-04-03T03:48:25.847Z,22.33
2023-04-03T03:50:57.156Z,22.60
2023-04-03T03:53:31.019Z,22.83
2023-04-03T03:56:07.826Z,25.90
2023-04-03T03:58:39.909Z,21.98
2023-04-03T04:01:17.511Z,20.92
2023-04-03T04:03:50.515Z,23.08
2023-04-03T04:06:30.820Z,18.67
2023-04-03T04:09:03.930Z,20.52
2023-04-03T04:14:11.016Z,20.02
2023-04-03T04:16:49.125Z,25.63
2023-04-03T04:19:23.925Z,17.23
2023-04-03T04:21:55.548Z,18.33
2023-04-03T04:24:25.464Z,17.88
2023-04-03T04:26:56.925Z,20.48
2023-04-03T04:29:27.562Z,23.80
2023-04-03T04:32:03.161Z,18.48
2023-04-03T04:34:33.185Z,22.48
2023-04-03T04:37:05.964Z,21.10
2023-04-03T04:39:36.578Z,21.42
2023-04-03T04:42:08.124Z,15.75
2023-04-03T04:47:07.496Z,19.30
2023-04-03T04:49:47.330Z,20.23
2023-04-03T04:52:19.844Z,20.83
2023-04-03T04:54:49.397Z,17.45
2023-04-03T04:57:24.484Z,18.92
2023-04-03T04:59:53.810Z,18.38
2023-04-03T05:02:23.192Z,21.02
2023-04-03T05:04:53.348Z,20.48
2023-04-03T05:07:28.908Z,23.02
2023-04-03T05:10:00.116Z,18.20
2023-04-03T05:12:32.311Z,20.73
2023-04-03T05:15:04.068Z,21.83
2023-04-03T05:17:39.970Z,18.95
2023-04-03T05:20:14.456Z,23.65
2023-04-03T05:22:47.352Z,23.02
2023-04-03T05:25:17.045Z,18.75
2023-04-03T05:27:47.348Z,20.95
2023-04-03T05:30:17.368Z,22.48
2023-04-03T05:32:48.164Z,20.25
2023-04-03T05:35:42.052Z,21.33
2023-04-03T05:38:17.301Z,24.35
2023-04-03T05:40:47.253Z,19.83
2023-04-03T05:43:16.721Z,22.80
2023-04-03T05:45:47.183Z,18.48
2023-04-03T05:48:17.822Z,16.10
2023-04-03T05:50:47.494Z,19.45
2023-04-03T05:53:28.446Z,19.15
2023-04-03T05:56:01.226Z,17.48
2023-04-03T05:58:33.866Z,16.42
2023-04-03T06:01:04.480Z,19.17
2023-04-03T06:03:33.970Z,20.15
2023-04-03T06:06:16.121Z,17.42
2023-04-03T06:08:47.481Z,17.75
2023-04-03T06:11:17.151Z,19.85
2023-04-03T06:13:46.913Z,16.83
2023-04-03T06:16:17.934Z,20.58
2023-04-03T06:18:47.143Z,23.80
2023-04-03T06:21:16.535Z,27.25
2023-04-03T06:23:52.898Z,25.33
2023-04-03T06:26:22.996Z,16.58
2023-04-03T06:28:52.535Z,20.75
2023-04-03T06:31:22.165Z,20.08
2023-04-03T06:33:51.709Z,17.45
2023-04-03T06:36:30.859Z,19.65
2023-04-03T06:39:02.154Z,15.00
2023-04-03T06:41:37.400Z,17.45
2023-04-03T06:44:07.074Z,15.65
2023-04-03T06:46:36.413Z,18.45
2023-04-03T06:49:08.167Z,22.45
2023-04-03T06:54:13.638Z,15.05
2023-04-03T06:56:43.053Z,21.35
2023-04-03T06:59:13.617Z,22.45
2023-04-03T07:01:49.661Z,22.45
2023-04-03T07:04:24.413Z,24.58
2023-04-03T07:06:55.875Z,18.35
2023-04-03T07:09:27.118Z,21.35
2023-04-03T07:12:01.405Z,19.55
2023-04-03T07:14:31.059Z,19.33
2023-04-03T07:17:00.301Z,15.93
2023-04-03T07:19:35.539Z,18.73
2023-04-03T07:22:04.812Z,21.30
2023-04-03T07:24:36.747Z,29.60
2023-04-03T07:27:09.182Z,28.63
2023-04-03T07:29:38.566Z,22.98
2023-04-03T07:32:08.487Z,26.42
2023-04-03T07:34:38.146Z,26.08
2023-04-03T07:39:49.279Z,29.67
2023-04-03T07:42:18.643Z,24.58
2023-04-03T07:44:48.117Z,25.15
2023-04-03T07:47:18.904Z,30.60
2023-04-03T07:49:50.008Z,26.20
2023-04-03T07:52:19.332Z,20.50
2023-04-03T07:54:50.596Z,23.90
2023-04-03T07:57:23.619Z,24.58
2023-04-03T07:59:53.017Z,28.77
2023-04-03T08:02:22.961Z,25.67
2023-04-03T08:04:53.088Z,24.17
2023-04-03T08:07:22.557Z,24.73
2023-04-03T08:12:34.275Z,19.02
2023-04-03T08:15:03.942Z,24.13
2023-04-03T08:20:10.964Z,25.05
2023-04-03T08:22:40.225Z,25.33
2023-04-03T08:25:12.543Z,23.23
2023-04-03T08:27:46.841Z,21.38
2023-04-03T08:30:16.854Z,23.92
2023-04-03T08:32:53.305Z,20.00
2023-04-03T08:35:22.814Z,19.85
2023-04-03T08:37:51.913Z,21.92
2023-04-03T08:40:23.398Z,19.15
2023-04-03T08:43:07.194Z,20.60
2023-04-03T08:45:50.260Z,19.27
2023-04-03T08:48:24.512Z,20.52
2023-04-03T08:50:58.840Z,24.38
2023-04-03T08:53:33.239Z,25.00
2023-04-03T08:56:08.418Z,17.90
2023-04-03T08:58:45.826Z,22.55
2023-04-03T09:01:22.282Z,20.98
2023-04-03T09:03:53.050Z,24.73
2023-04-03T09:06:24.916Z,17.88
2023-04-03T09:09:04.428Z,15.52
2023-04-03T09:14:32.904Z,19.33
2023-04-03T09:17:13.333Z,25.90
2023-04-03T09:19:51.865Z,15.43
2023-04-03T09:22:30.251Z,22.38
2023-04-03T09:25:03.341Z,22.38
2023-04-03T09:27:34.679Z,18.45
2023-04-03T09:30:04.419Z,24.00
2023-04-03T09:32:35.664Z,23.95
2023-04-03T09:35:19.065Z,25.60
2023-04-03T09:38:00.913Z,24.92
2023-04-03T09:40:40.046Z,30.08
2023-04-03T09:43:27.810Z,20.20
2023-04-03T09:45:59.165Z,23.23
2023-04-03T09:48:29.447Z,17.17
2023-04-03T09:51:02.265Z,21.23
2023-04-03T09:53:40.152Z,17.90
2023-04-03T09:56:23.689Z,30.30
2023-04-03T09:59:16.464Z,21.38
2023-04-03T10:01:59.840Z,23.33
2023-04-03T10:04:43.940Z,16.70
2023-04-03T10:07:29.399Z,21.05
2023-04-03T10:12:46.885Z,22.45
2023-04-03T10:15:24.326Z,25.17
2023-04-03T10:18:17.850Z,20.48
2023-04-03T10:20:55.099Z,21.83
2023-04-03T10:23:30.126Z,15.35
2023-04-03T10:26:12.592Z,18.67
2023-04-03T10:28:55.495Z,15.98
2023-04-03T10:31:35.962Z,15.32
2023-04-03T10:36:48.842Z,16.17
2023-04-03T10:39:30.394Z,18.77
2023-04-03T10:42:17.293Z,25.27
2023-04-03T10:45:11.163Z,18.25
2023-04-03T10:47:50.312Z,13.60
2023-04-03T10:50:41.725Z,16.00
2023-04-03T10:53:21.008Z,14.20
2023-04-03T10:55:56.911Z,14.68
2023-04-03T10:58:32.565Z,10.50
2023-04-03T11:01:09.797Z,13.65
2023-04-03T11:03:50.431Z,11.45
2023-04-03T11:06:24.425Z,9.32
2023-04-03T11:09:00.078Z,16.08
2023-04-03T11:11:38.141Z,9.48
2023-04-03T11:14:16.946Z,12.25
2023-04-03T11:16:58.714Z,7.93
2023-04-03T11:22:16.371Z,11.30
2023-04-03T11:24:49.872Z,13.55
2023-04-03T11:27:25.904Z,8.73
2023-04-03T11:29:57.435Z,14.63
2023-04-03T11:32:57.731Z,13.90
2023-04-03T11:35:30.279Z,14.98
2023-04-03T11:38:07.773Z,11.75
2023-04-03T11:40:41.216Z,10.38
2023-04-03T11:43:23.500Z,14.93
2023-04-03T11:46:02.820Z,18.15
2023-04-03T11:48:54.090Z,10.95
2023-04-03T11:51:45.611Z,9.30
2023-04-03T11:54:45.992Z,12.32
2023-04-03T11:57:45.772Z,8.82
2023-04-03T12:00:45.107Z,10.48
2023-04-03T12:03:52.395Z,9.80
2023-04-03T12:06:58.239Z,9.75
2023-04-03T12:09:34.320Z,13.60
2023-04-03T12:12:34.282Z,9.10
2023-04-03T12:15:54.318Z,13.45
2023-04-03T12:18:45.352Z,24.20
2023-04-03T12:21:19.098Z,14.60
2023-04-03T12:24:07.337Z,12.23
2023-04-03T12:26:49.284Z,13.27
2023-04-03T12:32:09.008Z,15.68
2023-04-03T12:35:01.431Z,12.63
2023-04-03T12:37:46.122Z,11.88
2023-04-03T12:40:26.831Z,13.23
2023-04-03T12:43:14.269Z,21.17
2023-04-03T12:52:41.523Z,15.65
2023-04-03T12:55:22.924Z,17.23
2023-04-03T12:57:57.976Z,15.55
2023-04-03T13:00:39.579Z,18.45
2023-04-03T13:03:22.794Z,10.63
2023-04-03T13:05:52.275Z,15.13
2023-04-03T13:08:23.706Z,10.52
2023-04-03T13:10:59.059Z,15.10
2023-04-03T13:13:28.999Z,13.93
2023-04-03T13:15:58.953Z,10.40
2023-04-03T13:18:32.197Z,12.15
2023-04-03T13:21:06.245Z,10.23
2023-04-03T13:23:40.900Z,11.25
2023-04-03T13:26:10.419Z,14.00
2023-04-03T13:28:40.295Z,13.07
2023-04-03T13:31:20.348Z,13.82
2023-04-03T13:33:59.165Z,8.38
2023-04-03T13:36:34.542Z,14.05
2023-04-03T13:39:08.842Z,11.05
2023-04-03T13:41:42.044Z,11.80
2023-04-03T13:44:20.076Z,9.48
2023-04-03T13:49:43.280Z,12.45
2023-04-03T13:52:27.786Z,8.35
2023-04-03T13:55:25.872Z,10.40
2023-04-03T13:57:59.010Z,10.27
2023-04-03T14:00:39.454Z,10.40
2023-04-03T14:03:17.358Z,11.27
2023-04-03T14:05:47.118Z,13.40
2023-04-03T14:08:16.849Z,11.20
2023-04-03T14:10:48.358Z,8.38
2023-04-03T14:13:19.768Z,12.45
2023-04-03T14:15:51.651Z,9.45
2023-04-03T14:20:51.786Z,10.75
2023-04-03T14:23:21.193Z,12.60
2023-04-03T14:25:54.067Z,11.60
2023-04-03T14:28:26.238Z,12.63
2023-04-03T14:31:00.571Z,13.60
2023-04-03T14:33:35.091Z,11.00
2023-04-03T14:36:07.624Z,14.00
2023-04-03T14:38:48.142Z,15.82
2023-04-03T14:41:21.698Z,12.65
2023-04-03T14:43:51.537Z,14.15
2023-04-03T14:46:31.280Z,15.85
2023-04-03T14:49:16.917Z,12.38
2023-04-03T14:51:46.386Z,18.02
2023-04-03T14:54:19.507Z,12.77
2023-04-03T14:56:57.167Z,15.52
2023-04-03T14:59:26.497Z,13.15
2023-04-03T15:01:55.835Z,13.30
2023-04-03T15:04:26.024Z,13.55
2023-04-03T15:06:55.863Z,12.13
2023-04-03T15:09:38.758Z,12.90
2023-04-03T15:12:11.919Z,23.35
2023-04-03T15:14:51.850Z,19.23
2023-04-03T15:17:27.053Z,13.82
2023-04-03T15:20:03.412Z,25.05
2023-04-03T15:22:32.780Z,21.70
2023-04-03T15:25:02.025Z,13.82
2023-04-03T15:27:34.662Z,11.52
2023-04-03T15:30:04.210Z,11.30
2023-04-03T15:32:34.411Z,13.23
2023-04-03T15:35:03.966Z,15.40
2023-04-03T15:37:33.506Z,10.63
2023-04-03T15:40:02.946Z,14.70
2023-04-03T15:42:34.703Z,14.10
2023-04-03T15:45:05.145Z,9.98
2023-04-03T15:47:40.135Z,18.23
2023-04-03T15:50:13.434Z,15.05
2023-04-03T15:52:42.910Z,16.85
2023-04-03T15:55:12.454Z,16.63
2023-04-03T15:57:43.971Z,13.90
2023-04-03T16:00:15.529Z,14.70
2023-04-03T16:02:45.770Z,14.80
2023-04-03T16:05:16.088Z,21.17
2023-04-03T16:07:45.312Z,19.65
2023-04-03T16:10:25.953Z,17.90
2023-04-03T16:12:57.110Z,15.98
2023-04-03T16:15:37.881Z,16.17
2023-04-03T16:18:08.180Z,18.23
2023-04-03T16:20:44.428Z,18.45
2023-04-03T16:23:15.049Z,28.02
2023-04-03T16:25:52.781Z,14.43
2023-04-03T16:28:24.255Z,20.58
2023-04-03T16:30:54.331Z,17.63
2023-04-03T16:33:23.559Z,21.70
2023-04-03T16:35:54.033Z,12.70
2023-04-03T16:38:23.390Z,21.67
2023-04-03T16:40:53.083Z,14.63
2023-04-03T16:43:29.960Z,13.27
2023-04-03T16:48:28.353Z,14.32
2023-04-03T16:51:03.784Z,13.02
2023-04-03T16:53:32.968Z,15.38
2023-04-03T16:56:02.358Z,19.25
2023-04-03T16:58:33.631Z,22.15
2023-04-03T17:01:15.741Z,18.88
2023-04-03T17:04:09.650Z,18.02
2023-04-03T17:06:50.769Z,18.83
2023-04-03T17:09:25.623Z,21.35
2023-04-03T17:11:54.789Z,14.15
2023-04-03T17:14:26.382Z,12.55
2023-04-03T17:16:55.954Z,17.52
2023-04-03T17:19:25.947Z,13.80
2023-04-03T17:21:55.785Z,21.25
2023-04-03T17:24:25.240Z,26.05
2023-04-03T17:26:59.586Z,15.10
2023-04-03T17:32:06.339Z,13.13
2023-04-03T17:34:36.491Z,7.50
2023-04-03T17:37:06.001Z,15.15
2023-04-03T17:39:35.487Z,9.20
2023-04-03T17:42:04.705Z,12.20
2023-04-03T17:44:41.508Z,14.73
2023-04-03T17:47:13.403Z,14.70
2023-04-03T17:49:45.781Z,10.32
2023-04-03T17:52:15.059Z,14.95
2023-04-03T17:54:47.213Z,14.70
2023-04-03T17:57:16.590Z,11.38
2023-04-03T17:59:48.430Z,12.82
2023-04-03T18:04:53.967Z,11.55
2023-04-03T18:07:25.718Z,12.13
2023-04-03T18:09:55.128Z,15.43
2023-04-03T18:12:24.719Z,14.00
2023-04-03T18:14:56.367Z,17.95
2023-04-03T18:17:28.129Z,13.65
2023-04-03T18:19:57.534Z,12.18
2023-04-03T18:22:27.868Z,9.15
2023-04-03T18:24:59.423Z,13.32
2023-04-03T18:27:30.035Z,13.55
2023-04-03T18:30:04.805Z,11.68
2023-04-03T18:32:34.076Z,10.35
2023-04-03T18:35:03.540Z,13.43
2023-04-03T18:37:33.037Z,10.05
2023-04-03T18:40:02.219Z,11.88
2023-04-03T18:42:32.487Z,15.23
2023-04-03T18:45:07.956Z,16.52
2023-04-03T18:47:37.289Z,15.15
2023-04-03T18:50:07.841Z,16.63
2023-04-03T18:52:37.193Z,18.38
2023-04-03T18:55:13.591Z,14.52
2023-04-03T18:57:42.769Z,17.02
2023-04-03T19:00:17.759Z,17.77
2023-04-03T19:02:47.637Z,18.25
2023-04-03T19:05:23.457Z,16.95
2023-04-03T19:07:57.900Z,16.50
2023-04-03T19:10:30.832Z,17.65
2023-04-03T19:13:05.519Z,18.17
2023-04-03T19:15:37.104Z,22.33
2023-04-03T19:20:36.746Z,20.17
2023-04-03T19:23:06.120Z,23.48
2023-04-03T19:25:35.889Z,19.92
2023-04-03T19:28:10.561Z,17.48
2023-04-03T19:30:43.276Z,18.63
2023-04-03T19:33:21.449Z,18.63
2023-04-03T19:35:50.869Z,20.13
2023-04-03T19:38:20.107Z,17.25
2023-04-03T19:40:49.507Z,19.15
2023-04-03T19:43:19.351Z,18.02
2023-04-03T19:46:00.919Z,20.13
2023-04-03T19:48:35.196Z,16.13
2023-04-03T19:51:05.699Z,16.75
2023-04-03T19:53:34.907Z,15.70
2023-04-03T19:56:04.181Z,17.25
2023-04-03T19:58:34.134Z,19.50
2023-04-03T20:01:05.388Z,20.15
2023-04-03T20:03:34.978Z,15.20
2023-04-03T20:06:05.148Z,22.60
2023-04-03T20:08:39.761Z,18.63
2023-04-03T20:11:12.140Z,15.30
2023-04-03T20:13:41.821Z,19.88
2023-04-03T20:16:13.106Z,17.52
2023-04-03T20:18:48.858Z,23.10
2023-04-03T20:21:28.925Z,20.13
2023-04-03T20:23:59.057Z,20.77
2023-04-03T20:26:31.632Z,21.13
2023-04-03T20:29:03.629Z,15.25
2023-04-03T20:34:15.836Z,17.30
2023-04-03T20:36:48.047Z,28.27
2023-04-03T20:39:23.648Z,20.17
2023-04-03T20:41:55.193Z,17.67
2023-04-03T20:44:27.685Z,16.77
2023-04-03T20:47:04.017Z,16.60
2023-04-03T20:49:33.859Z,21.65
2023-04-03T20:52:04.183Z,19.17
2023-04-03T20:54:34.398Z,16.23
2023-04-03T20:57:04.249Z,19.23
2023-04-03T20:59:36.613Z,23.95
2023-04-03T21:02:08.747Z,20.13
2023-04-03T21:04:49.885Z,16.13
2023-04-03T21:07:49.295Z,19.15
2023-04-03T21:10:48.380Z,15.02
2023-04-03T21:13:48.390Z,16.00
2023-04-03T21:16:17.460Z,15.50
2023-04-03T21:19:20.109Z,14.52
2023-04-03T21:21:57.043Z,18.17
2023-04-03T21:24:26.323Z,18.02
2023-04-03T21:26:55.608Z,16.23
2023-04-03T21:29:25.870Z,15.30
2023-04-03T21:31:56.693Z,14.75
2023-04-03T21:34:29.729Z,14.63
2023-04-03T21:37:02.928Z,16.20
2023-04-03T21:39:33.720Z,20.65
2023-04-03T21:42:02.963Z,15.32
2023-04-03T21:44:37.180Z,18.58
2023-04-03T21:47:07.285Z,14.38
2023-04-03T21:49:38.713Z,15.57
2023-04-03T21:52:08.128Z,13.68
2023-04-03T21:54:42.231Z,15.57
2023-04-03T21:57:13.090Z,17.27
2023-04-03T21:59:42.830Z,14.57
2023-04-03T22:02:12.081Z,13.68
2023-04-03T22:04:45.488Z,14.45
2023-04-03T22:07:15.019Z,15.40
2023-04-03T22:09:44.939Z,17.50
2023-04-03T22:12:14.322Z,14.18
2023-04-03T22:14:44.227Z,14.52
2023-04-03T22:17:19.100Z,16.10
2023-04-03T22:19:50.387Z,15.35
2023-04-03T22:22:20.719Z,13.43
2023-04-03T22:24:50.014Z,16.98
2023-04-03T22:27:30.241Z,14.50
2023-04-03T22:30:00.155Z,15.63
2023-04-03T22:32:29.465Z,17.90
2023-04-03T22:35:06.234Z,20.60
2023-04-03T22:37:35.780Z,17.52
2023-04-03T22:40:05.258Z,16.25
2023-04-03T22:45:11.327Z,15.68
2023-04-03T22:47:40.560Z,15.88
2023-04-03T22:50:13.152Z,14.35
2023-04-03T22:52:42.392Z,16.92
2023-04-03T22:55:19.077Z,14.32
2023-04-03T22:57:48.918Z,15.65
2023-04-03T23:00:20.350Z,14.13
2023-04-03T23:02:49.579Z,14.32
2023-04-03T23:05:20.807Z,12.52
2023-04-03T23:10:24.939Z,13.32
2023-04-03T23:12:59.444Z,13.30
2023-04-03T23:15:28.786Z,13.45
2023-04-03T23:17:58.004Z,14.20
2023-04-03T23:20:29.723Z,13.00
2023-04-03T23:22:59.050Z,10.32
2023-04-03T23:25:28.729Z,11.80
2023-04-03T23:28:04.338Z,13.60
2023-04-03T23:30:33.934Z,12.57
2023-04-03T23:33:03.253Z,12.25
2023-04-03T23:35:35.007Z,13.98
2023-04-03T23:38:04.371Z,9.10
2023-04-03T23:40:33.754Z,10.90
2023-04-03T23:43:03.500Z,14.15
2023-04-03T23:45:32.690Z,13.25
2023-04-03T23:48:02.086Z,13.85
2023-04-03T23:50:33.701Z,13.00
2023-04-03T23:53:03.251Z,15.60
2023-04-03T23:55:43.440Z,13.38
2023-04-03T23:58:12.853Z,14.80
